• Join FlightAware (Why Join?)
  • Login
  • US Flag 
09:27PM EDT


 

Airport Tracker/Info


-or-


 

Live Flight TrackerFlight Track Log ✈ SWA1729 ✈ 22-Apr-2013 ✈ KBNA - KHOU

Flight Track Log - Related Links

Times and Time Zones

All times are in EDT time to prevent confusion due to time zone crossing. See the SWA1729 flight status page for this flight to view local times or setup timezone preferences in your user account.

Time Position Orientation Groundspeed Altitude Reporting Facility
EDT Latitude Longitude Course Direction KTS MPH feet Rate Location/Type
07:43PM 36.1000 -86.6833 238° Southwest 142 163 1,300  Level Nashville TRACON
07:43PM 36.0833 -86.7167 238° Southwest 186 214 2,400 2,340 Climbing Nashville TRACON
07:44PM 36.1000 -86.8000 284° West 247 284 5,300 3,120 Climbing Nashville TRACON
07:45PM 36.1000 -86.8833 270° West 288 331 8,400 3,480 Climbing Nashville TRACON
07:46PM 36.0950 -86.9433 264° West 301 346 10,700 2,820 Climbing Memphis Center
07:47PM 36.0958 -87.0536 271° West 301 346 13,100 2,160 Climbing Memphis Center
07:48PM 36.0986 -87.1667 272° West 322 371 15,100 2,160 Climbing Memphis Center
07:50PM 36.0611 -87.4169 260° West 370 426 19,700 2,280 Climbing Memphis Center
07:51PM 36.0347 -87.5386 255° West 378 435 22,000 2,040 Climbing Memphis Center
07:52PM 36.0083 -87.6678 256° West 378 435 23,800 1,800 Climbing Memphis Center
07:53PM 35.9819 -87.7994 256° West 383 441 25,600 1,560 Climbing Memphis Center
07:54PM 35.9575 -87.9208 256° West 396 456 27,000 1,500 Climbing Memphis Center
07:55PM 35.9308 -88.0575 256° West 404 465 28,600 1,860 Climbing Memphis Center
07:56PM 35.9039 -88.1839 255° West 404 465 30,800 1,800 Climbing Memphis Center
07:57PM 35.8664 -88.3078 250° West 390 449 32,300 1,500 Climbing Memphis Center
07:58PM 35.8078 -88.4269 239° Southwest 390 449 33,900 1,560 Climbing Memphis Center
07:59PM 35.7511 -88.5358 237° Southwest 390 449 35,500 1,020 Climbing Memphis Center
08:00PM 35.6942 -88.6444 237° Southwest 390 449 36,000 240 Climbing Memphis Center
08:01PM 35.6394 -88.7553 239° Southwest 390 449 36,000  Level Memphis Center
08:02PM 35.5864 -88.8636 239° Southwest 385 443 36,000  Level Memphis Center
08:03PM 35.5275 -88.9897 240° Southwest 385 443 36,000  Level Memphis Center
08:04PM 35.4681 -89.0978 236° Southwest 385 443 36,000  Level Memphis Center
08:05PM 35.4150 -89.2056 239° Southwest 385 443 36,000  Level Memphis Center
08:06PM 35.3597 -89.3183 239° Southwest 385 443 36,000  Level Memphis Center
08:07PM 35.3022 -89.4258 237° Southwest 391 450 36,000  Level Memphis Center
08:08PM 35.2467 -89.5358 238° Southwest 386 444 36,000  Level Memphis Center
08:09PM 35.1908 -89.6456 238° Southwest 386 444 36,000  Level Memphis Center
08:10PM 35.1372 -89.7578 240° Southwest 391 450 36,000  Level Memphis Center
08:11PM 35.0814 -89.8700 239° Southwest 391 450 36,000  Level Memphis Center
08:12PM 35.0192 -89.9767 235° Southwest 391 450 36,000  Level Memphis Center
08:13PM 34.9319 -90.0658 220° Southwest 404 465 36,000  Level Memphis Center
08:14PM 34.8403 -90.1497 217° Southwest 417 480 36,000  Level Memphis Center
08:15PM 34.7464 -90.2358 217° Southwest 428 493 36,000  Level Memphis Center
08:16PM 34.6547 -90.3192 217° Southwest 428 493 36,000  Level Memphis Center
08:17PM 34.5714 -90.4100 222° Southwest 415 478 36,000  Level Memphis Center
08:18PM 34.5147 -90.5183 238° Southwest 393 452 36,000  Level Memphis Center
08:19PM 34.4603 -90.6292 239° Southwest 388 447 36,000  Level Memphis Center
08:20PM 34.4100 -90.7247 237° Southwest 388 447 36,000  Level Memphis Center
08:21PM 34.3533 -90.8350 238° Southwest 382 440 36,000  Level Memphis Center
08:22PM 34.3008 -90.9406 239° Southwest 382 440 36,000  Level Memphis Center
08:23PM 34.2458 -91.0481 238° Southwest 382 440 36,000  Level Memphis Center
08:24PM 34.1911 -91.1606 240° Southwest 382 440 36,000  Level Memphis Center
08:25PM 34.1339 -91.2631 236° Southwest 382 440 36,000  Level Memphis Center
08:26PM 34.0767 -91.3828 240° Southwest 382 440 36,000  Level Memphis Center
08:27PM 34.0217 -91.4900 238° Southwest 377 434 36,000  Level Memphis Center
08:28PM 33.9664 -91.5944 237° Southwest 383 441 36,000  Level Memphis Center
08:30PM 33.8644 -91.8033 240° Southwest 380 437 36,000  Level Fort Worth Center
08:31PM 33.8042 -91.9069 235° Southwest 385 443 36,000  Level Fort Worth Center
08:32PM 33.7483 -92.0156 238° Southwest 385 443 36,000  Level Fort Worth Center
08:33PM 33.6925 -92.1236 238° Southwest 385 443 36,000  Level Fort Worth Center
08:34PM 33.5972 -92.1869 209° Southwest 380 437 36,000  Level Fort Worth Center
08:35PM 33.4922 -92.2231 196° South 387 445 36,000  Level Fort Worth Center
08:36PM 33.3747 -92.2572 194° South 414 476 36,000  Level Fort Worth Center
08:37PM 33.2550 -92.2917 194° South 432 497 36,000  Level Fort Worth Center
08:38PM 33.1375 -92.3281 195° South 437 503 36,000  Level Fort Worth Center
08:39PM 33.0181 -92.3647 194° South 437 503 36,000  Level Fort Worth Center
08:41PM 32.7225 -92.4556 194° South 436 502 36,000  Level Houston Center
08:42PM 32.6067 -92.4892 194° South 429 494 36,000  Level Houston Center
08:43PM 32.4994 -92.5189 193° South 431 496 36,000  Level Houston Center
08:44PM 32.3839 -92.5547 195° South 430 495 36,000  Level Houston Center
08:45PM 32.2675 -92.5889 194° South 431 496 36,000  Level Houston Center
08:46PM 32.1278 -92.6306 194° South 432 497 36,000  Level Houston Center
08:47PM 32.0108 -92.6664 195° South 434 499 36,000  Level Houston Center
08:48PM 31.9208 -92.7447 216° Southwest 409 471 36,000  Level Houston Center
08:49PM 31.8456 -92.8389 227° Southwest 398 458 36,000  Level Houston Center
08:50PM 31.7711 -92.9344 228° Southwest 398 458 36,000  Level Houston Center
08:51PM 31.6967 -93.0289 227° Southwest 395 455 36,000  Level Houston Center
08:53PM 31.6067 -93.1422 227° Southwest 397 457 36,000  Level Houston Center
08:54PM 31.5311 -93.2364 227° Southwest 397 457 36,000  Level Houston Center
08:55PM 31.4519 -93.3378 228° Southwest 401 461 36,000  Level Houston Center
08:56PM 31.3764 -93.4333 227° Southwest 401 461 36,000  Level Houston Center
08:57PM 31.3006 -93.5275 227° Southwest 400 460 36,000  Level Houston Center
08:58PM 31.2283 -93.6167 227° Southwest 400 460 36,000  Level Houston Center
08:59PM 31.1536 -93.7117 227° Southwest 400 460 36,000  Level Houston Center
09:00PM 31.0631 -93.8233 227° Southwest 396 456 36,000  Level Houston Center
09:01PM 30.9858 -93.9181 226° Southwest 401 461 36,000 -1,380 Level Houston Center
09:02PM 30.9097 -94.0119 227° Southwest 401 461 33,200 -2,640 Descending Houston Center
09:03PM 30.8331 -94.1067 227° Southwest 403 464 30,600 -2,400 Descending Houston Center
09:04PM 30.7583 -94.1964 226° Southwest 394 453 28,300 -2,340 Descending Houston Center
09:04PM 30.7072 -94.2608 227° Southwest 384 442 26,900 -2,160 Descending Houston Center
09:05PM 30.6844 -94.2892 227° Southwest 397 457 26,100 -2,580 Descending Houston Center
09:06PM 30.5900 -94.4025 226° Southwest 407 468 23,100 -2,640 Descending Houston Center
09:07PM 30.5161 -94.4911 226° Southwest 388 447 20,800 -2,280 Descending Houston Center
09:08PM 30.4544 -94.5825 232° Southwest 364 419 18,500 -2,340 Descending Houston Center
09:09PM 30.3925 -94.6758 232° Southwest 360 414 16,200 -2,160 Descending Houston Center
09:10PM 30.3386 -94.7603 234° Southwest 352 405 14,100 -1,980 Descending Houston Center
09:11PM 30.2711 -94.8650 233° Southwest 342 394 12,000 -1,500 Descending Houston Center
09:12PM 30.2172 -94.9483 233° Southwest 329 379 11,100 -480 Descending Houston Center
09:13PM 30.1564 -95.0197 225° Southwest 318 366 11,100 -60 Level Houston Center
09:14PM 30.0631 -95.0536 197° South 319 367 11,000 -120 Descending Houston Center
09:15PM 29.9756 -95.0861 198° South 326 375 10,900 -540 Descending Houston Center
09:16PM 29.9061 -95.1122 198° South 297 342 9,900 -1,380 Descending Houston Center
09:17PM 29.8172 -95.1442 197° South 287 330 8,200 -1,560 Descending Houston Center
09:18PM 29.7558 -95.1675 198° South 280 322 6,800 -1,140 Descending Houston Center
09:19PM 29.6689 -95.1983 197° South 275 316 6,000 -420 Descending Houston Center
09:20PM 29.6061 -95.2231 199° South 222 255 6,000 -240 Level Houston Center
09:21PM 29.5556 -95.2650 216° Southwest 212 244 5,600 -1,020 Descending Houston Center
09:22PM 29.5153 -95.3061 222° Southwest 197 227 4,000 -1,860 Descending Houston Center
09:23PM 29.5522 -95.3447 318° Northwest 199 229 1,900 -1,320 Descending Houston Center
09:24PM 29.5936 -95.3375 North 127 146 1,400 -660 Descending Houston Center
09:25PM 29.6200 -95.3053 47° Northeast 146 168 600 -840 Descending Houston Center